Time;durP1;ratioP1;P1;durP2;ratioP2;P2;SDS_P1;SDS_P2;PMS_P1;PMS_P2;Temp;Humidity;BMP_temperature;BMP_pressure;BME280_temperature;BME280_humidity;BME280_pressure;Samples;Min_cycle;Max_cycle;Signal;HPM_P1;HPM_P2
2023/11/07 00:01:27;;;;;;;12.60;7.30;;;;;;;9.43;100.00;100666.35;105740;1258;63862;-77
2023/11/07 00:03:54;;;;;;;15.50;7.90;;;;;;;9.43;100.00;100670.55;105705;1256;72688;-76
2023/11/07 00:06:21;;;;;;;11.00;6.70;;;;;;;9.42;100.00;100671.84;105549;1256;60677;-78
2023/11/07 00:08:48;;;;;;;18.10;7.60;;;;;;;9.41;100.00;100680.42;105624;1258;60377;-80
2023/11/07 00:11:15;;;;;;;14.90;7.30;;;;;;;9.40;100.00;100680.30;105630;1258;72630;-77
2023/11/07 00:13:42;;;;;;;15.10;7.80;;;;;;;9.39;100.00;100676.33;105549;1258;62573;-76
2023/11/07 00:16:10;;;;;;;14.30;7.70;;;;;;;9.38;100.00;100676.22;105729;1256;72684;-77
2023/11/07 00:18:37;;;;;;;17.30;7.40;;;;;;;9.36;100.00;100681.20;105589;1258;61939;-78
2023/11/07 00:21:05;;;;;;;16.20;7.80;;;;;;;9.35;100.00;100679.34;105527;1258;60648;-78
2023/11/07 00:23:32;;;;;;;16.10;8.10;;;;;;;9.34;100.00;100680.98;105660;1258;72799;-78
2023/11/07 00:25:59;;;;;;;16.80;7.90;;;;;;;9.33;100.00;100681.21;105598;1258;63856;-77
2023/11/07 00:28:26;;;;;;;14.90;8.00;;;;;;;9.31;100.00;100683.73;105515;1256;72672;-79
2023/11/07 00:30:53;;;;;;;14.30;6.60;;;;;;;9.29;100.00;100685.94;105543;1256;60481;-76
2023/11/07 00:33:20;;;;;;;12.70;6.50;;;;;;;9.27;100.00;100686.56;105516;1256;60551;-76
2023/11/07 00:35:47;;;;;;;13.40;7.00;;;;;;;9.25;100.00;100684.94;105548;1255;72669;-76
2023/11/07 00:38:16;;;;;;;15.30;6.60;;;;;;;9.23;100.00;100689.92;105529;1256;62613;-79
2023/11/07 00:40:42;;;;;;;13.70;7.10;;;;;;;9.21;100.00;100693.70;105542;1259;60420;-78
2023/11/07 00:43:09;;;;;;;10.50;6.40;;;;;;;9.19;100.00;100697.14;105508;1258;60477;-79
2023/11/07 00:45:36;;;;;;;14.90;7.10;;;;;;;9.18;100.00;100705.73;105510;1256;60503;-77
2023/11/07 00:48:03;;;;;;;11.30;6.50;;;;;;;9.16;100.00;100708.11;105699;1256;72498;-76
2023/11/07 00:50:30;;;;;;;14.10;6.50;;;;;;;9.14;100.00;100709.09;105728;1258;62909;-76
2023/11/07 00:52:57;;;;;;;13.20;6.60;;;;;;;9.12;100.00;100705.02;105683;1256;73748;-77
2023/11/07 00:55:24;;;;;;;11.20;5.10;;;;;;;9.09;100.00;100711.75;105537;1255;60998;-76
2023/11/07 00:57:51;;;;;;;9.80;6.00;;;;;;;9.08;100.00;100716.20;105575;1258;60361;-75
2023/11/07 01:00:19;;;;;;;12.60;6.40;;;;;;;9.05;100.00;100713.88;105493;1256;73772;-77
2023/11/07 01:02:47;;;;;;;11.50;6.10;;;;;;;9.04;100.00;100719.55;105495;1261;64465;-76
2023/11/07 01:05:15;;;;;;;12.80;7.30;;;;;;;9.02;100.00;100718.77;105533;1256;72838;-79
2023/11/07 01:07:44;;;;;;;13.10;6.60;;;;;;;9.00;100.00;100719.73;105619;1258;60448;-78
2023/11/07 01:10:11;;;;;;;12.50;7.00;;;;;;;8.99;100.00;100721.92;105499;1256;60500;-77
2023/11/07 01:12:37;;;;;;;16.20;6.80;;;;;;;8.97;100.00;100725.85;105566;1258;73842;-77
2023/11/07 01:15:05;;;;;;;14.10;7.30;;;;;;;8.95;100.00;100727.85;105658;1258;63875;-78
2023/11/07 01:17:32;;;;;;;17.20;7.90;;;;;;;8.93;100.00;100729.82;105571;1256;72659;-77
2023/11/07 01:19:59;;;;;;;13.60;6.30;;;;;;;8.92;100.00;100735.49;105582;1257;60563;-77
2023/11/07 01:22:26;;;;;;;14.80;7.00;;;;;;;8.90;100.00;100734.19;105651;1256;60557;-78
2023/11/07 01:24:53;;;;;;;10.30;5.30;;;;;;;8.89;100.00;100735.11;105608;1256;75160;-76
2023/11/07 01:27:21;;;;;;;13.10;6.20;;;;;;;8.88;100.00;100740.04;105845;1258;64183;-75
2023/11/07 01:29:48;;;;;;;8.60;5.20;;;;;;;8.87;100.00;100742.01;105679;1261;72761;-75
2023/11/07 01:32:14;;;;;;;9.20;5.50;;;;;;;8.87;100.00;100743.78;105592;1258;61194;-76
2023/11/07 01:34:42;;;;;;;11.00;5.30;;;;;;;8.85;100.00;100746.11;105577;1254;60448;-76
2023/11/07 01:37:08;;;;;;;6.90;4.50;;;;;;;8.85;100.00;100754.34;105481;1260;72393;-76
2023/11/07 01:39:35;;;;;;;18.50;7.90;;;;;;;8.84;100.00;100758.91;105531;1258;63937;-77
2023/11/07 01:42:03;;;;;;;10.70;4.40;;;;;;;8.84;100.00;100762.78;105625;1256;72720;-78
2023/11/07 01:44:30;;;;;;;11.40;5.40;;;;;;;8.83;100.00;100766.65;105815;1255;61177;-76
2023/11/07 01:46:57;;;;;;;10.50;5.50;;;;;;;8.82;100.00;100771.23;105603;1256;60438;-78
2023/11/07 01:49:24;;;;;;;10.60;5.60;;;;;;;8.81;100.00;100773.89;105589;1256;73722;-77
2023/11/07 01:51:51;;;;;;;9.30;5.40;;;;;;;8.80;100.00;100775.18;105660;1255;62408;-77
2023/11/07 01:54:18;;;;;;;10.40;5.70;;;;;;;8.78;100.00;100776.83;105507;1260;72476;-77
2023/11/07 01:56:45;;;;;;;9.80;5.20;;;;;;;8.78;100.00;100781.88;105505;1261;61025;-80
2023/11/07 01:59:12;;;;;;;15.00;5.80;;;;;;;8.77;100.00;100782.78;105489;1256;60442;-75
2023/11/07 02:01:39;;;;;;;12.90;5.90;;;;;;;8.77;100.00;100785.77;105520;1256;73653;-78
2023/11/07 02:04:06;;;;;;;13.50;6.70;;;;;;;8.77;100.00;100789.61;105435;1261;64215;-77
2023/11/07 02:06:33;;;;;;;14.60;7.50;;;;;;;8.76;100.00;100793.14;105810;1254;72551;-75
2023/11/07 02:09:00;;;;;;;14.20;7.10;;;;;;;8.76;100.00;100800.84;106239;1258;61254;-75
2023/11/07 02:11:28;;;;;;;14.70;7.50;;;;;;;8.74;100.00;100803.01;105745;1254;60561;-77
2023/11/07 02:13:56;;;;;;;15.30;8.00;;;;;;;8.73;100.00;100804.95;106389;1256;72878;-76
2023/11/07 02:16:22;;;;;;;14.10;8.20;;;;;;;8.73;100.00;100804.98;107089;1256;62348;-76
2023/11/07 02:18:50;;;;;;;11.90;6.80;;;;;;;8.73;100.00;100809.33;107751;1256;71505;-73
2023/11/07 02:21:18;;;;;;;15.60;7.00;;;;;;;8.73;100.00;100811.06;107930;1254;60375;-77
2023/11/07 02:23:45;;;;;;;14.60;7.10;;;;;;;8.74;100.00;100813.11;108565;1254;59207;-75
2023/11/07 02:26:11;;;;;;;8.30;5.70;;;;;;;8.73;100.00;100813.14;108652;1254;73565;-74
2023/11/07 02:28:38;;;;;;;11.40;6.60;;;;;;;8.74;100.00;100812.60;108850;1255;62684;-74
2023/11/07 02:31:05;;;;;;;7.30;4.80;;;;;;;8.75;100.00;100821.98;108705;1254;71376;-75
2023/11/07 02:33:32;;;;;;;7.30;5.00;;;;;;;8.75;100.00;100826.29;108038;1258;60535;-75
2023/11/07 02:36:00;;;;;;;12.00;5.60;;;;;;;8.75;100.00;100829.09;106379;1256;60452;-76
2023/11/07 02:38:28;;;;;;;12.60;6.20;;;;;;;8.75;100.00;100827.89;106060;1258;72471;-75
2023/11/07 02:40:55;;;;;;;14.50;6.20;;;;;;;8.75;100.00;100829.30;105924;1255;62277;-78
2023/11/07 02:43:23;;;;;;;13.30;6.90;;;;;;;8.74;100.00;100830.90;105786;1255;72740;-80
2023/11/07 02:45:51;;;;;;;16.50;7.80;;;;;;;8.74;100.00;100835.25;106563;1258;60660;-76
2023/11/07 02:48:18;;;;;;;16.70;6.50;;;;;;;8.74;100.00;100839.09;106135;1255;60434;-77
2023/11/07 02:50:45;;;;;;;15.60;6.10;;;;;;;8.73;100.00;100837.91;105561;1255;73515;-77
2023/11/07 02:53:13;;;;;;;13.00;6.60;;;;;;;8.72;100.00;100835.01;105763;1255;62538;-78
2023/11/07 02:55:40;;;;;;;13.80;5.60;;;;;;;8.70;100.00;100836.45;105676;1256;72716;-77
2023/11/07 02:58:07;;;;;;;11.20;5.80;;;;;;;8.69;100.00;100837.58;105647;1256;60507;-76
2023/11/07 03:00:34;;;;;;;12.20;5.30;;;;;;;8.68;100.00;100841.29;105588;1256;60525;-80
2023/11/07 03:03:03;;;;;;;8.90;4.80;;;;;;;8.66;100.00;100843.64;105606;1254;73897;-78
2023/11/07 03:05:30;;;;;;;8.10;4.70;;;;;;;8.64;100.00;100846.86;105584;1254;62574;-75
2023/11/07 03:07:58;;;;;;;6.30;3.60;;;;;;;8.62;100.00;100853.23;105627;1258;72556;-76
2023/11/07 03:10:25;;;;;;;5.80;3.90;;;;;;;8.60;100.00;100855.94;105720;1258;61152;-79
2023/11/07 03:12:54;;;;;;;5.10;3.20;;;;;;;8.58;100.00;100861.66;105543;1259;60531;-79
2023/11/07 03:15:20;;;;;;;4.60;3.80;;;;;;;8.55;100.00;100864.40;105646;1254;72656;-77
2023/11/07 03:17:47;;;;;;;6.20;3.90;;;;;;;8.53;100.00;100867.45;105633;1257;62881;-79
2023/11/07 03:20:14;;;;;;;7.70;4.40;;;;;;;8.50;100.00;100867.60;105521;1258;72495;-78
2023/11/07 03:22:40;;;;;;;9.70;5.80;;;;;;;8.47;100.00;100872.23;105497;1262;60876;-79
2023/11/07 03:25:08;;;;;;;14.70;6.90;;;;;;;8.45;100.00;100876.58;105740;1258;60369;-79
2023/11/07 03:27:36;;;;;;;12.60;7.70;;;;;;;8.42;100.00;100873.71;105711;1258;73820;-77
2023/11/07 03:30:05;;;;;;;12.90;7.40;;;;;;;8.40;100.00;100878.00;105621;1259;63895;-77
2023/11/07 03:32:33;;;;;;;12.60;7.70;;;;;;;8.37;100.00;100881.40;105626;1258;71454;-77
2023/11/07 03:35:00;;;;;;;13.80;8.40;;;;;;;8.35;100.00;100883.59;105583;1256;60584;-78
2023/11/07 03:37:27;;;;;;;19.50;8.90;;;;;;;8.34;100.00;100888.02;106151;1258;60909;-78
2023/11/07 03:39:53;;;;;;;18.80;10.00;;;;;;;8.33;100.00;100890.16;105630;1254;72601;-77
2023/11/07 03:42:21;;;;;;;17.70;10.00;;;;;;;8.31;100.00;100891.98;105603;1260;64272;-76
2023/11/07 03:44:48;;;;;;;21.70;11.10;;;;;;;8.30;100.00;100895.85;105583;1259;70155;-78
2023/11/07 03:47:15;;;;;;;22.40;10.80;;;;;;;8.29;100.00;100897.81;105714;1259;60981;-79
2023/11/07 03:49:42;;;;;;;26.70;13.10;;;;;;;8.27;100.00;100901.55;105656;1258;60455;-78
2023/11/07 03:52:10;;;;;;;21.60;10.40;;;;;;;8.26;100.00;100905.44;105660;1256;72803;-76
2023/11/07 03:54:37;;;;;;;24.00;11.70;;;;;;;8.24;100.00;100904.13;105674;1256;62970;-79
2023/11/07 03:57:06;;;;;;;22.90;11.40;;;;;;;8.22;100.00;100903.50;105921;1255;71659;-77
2023/11/07 03:59:34;;;;;;;20.90;10.80;;;;;;;8.22;100.00;100906.15;106243;1256;60542;-75
2023/11/07 04:02:03;;;;;;;19.80;10.50;;;;;;;8.20;100.00;100907.80;106698;1254;60229;-75
2023/11/07 04:04:32;;;;;;;20.90;9.30;;;;;;;8.19;100.00;100910.14;107775;1255;73750;-73
2023/11/07 04:07:04;;;;;;;15.40;7.80;;;;;;;8.18;100.00;100916.94;108060;1254;62511;-74
2023/11/07 04:09:31;;;;;;;12.60;7.40;;;;;;;8.16;100.00;100920.52;107963;1254;71141;-75
2023/11/07 04:11:57;;;;;;;13.80;7.50;;;;;;;8.16;100.00;100924.38;108398;1254;60413;-75
2023/11/07 04:14:24;;;;;;;14.40;8.10;;;;;;;8.14;100.00;100928.60;108614;1254;59153;-75
2023/11/07 04:16:52;;;;;;;15.40;8.10;;;;;;;8.14;100.00;100928.96;108563;1256;72960;-74
2023/11/07 04:19:19;;;;;;;16.60;8.90;;;;;;;8.13;100.00;100931.45;108518;1256;62361;-76
2023/11/07 04:21:45;;;;;;;13.60;7.00;;;;;;;8.13;100.00;100934.92;106749;1255;72474;-76
2023/11/07 04:24:13;;;;;;;11.90;7.80;;;;;;;8.13;100.00;100938.77;106469;1254;60432;-76
2023/11/07 04:26:40;;;;;;;16.00;7.50;;;;;;;8.12;100.00;100940.71;106882;1255;60555;-77
2023/11/07 04:29:07;;;;;;;15.60;7.70;;;;;;;8.13;100.00;100945.05;106468;1258;72369;-78
2023/11/07 04:31:37;;;;;;;14.10;7.80;;;;;;;8.12;100.00;100947.84;106006;1259;62506;-77
2023/11/07 04:34:09;;;;;;;13.50;7.50;;;;;;;8.12;100.00;100952.21;106007;1254;71104;-77
2023/11/07 04:36:39;;;;;;;12.30;6.50;;;;;;;8.13;100.00;100955.66;105883;1258;60358;-78
2023/11/07 04:39:13;;;;;;;16.10;7.50;;;;;;;8.13;100.00;100958.77;105701;1258;60393;-77
2023/11/07 04:41:41;;;;;;;11.00;7.10;;;;;;;8.13;100.00;100965.77;105809;1258;72706;-79
2023/11/07 04:44:08;;;;;;;11.80;7.50;;;;;;;8.14;100.00;100963.45;105790;1254;62466;-78
2023/11/07 04:46:37;;;;;;;15.00;8.20;;;;;;;8.13;100.00;100968.53;105669;1261;71824;-78
2023/11/07 04:49:05;;;;;;;17.10;8.20;;;;;;;8.14;100.00;100970.41;105610;1259;61810;-79
2023/11/07 04:51:33;;;;;;;16.00;7.90;;;;;;;8.15;100.00;100973.35;105686;1258;60550;-78
2023/11/07 04:54:00;;;;;;;16.60;8.20;;;;;;;8.16;100.00;100974.84;105729;1258;73777;-77
2023/11/07 04:56:27;;;;;;;14.00;7.20;;;;;;;8.18;100.00;100978.44;105608;1260;63922;-78
2023/11/07 04:58:54;;;;;;;15.20;8.60;;;;;;;8.19;100.00;100984.33;105619;1258;71298;-77
2023/11/07 05:01:28;;;;;;;14.10;6.80;;;;;;;8.20;100.00;100992.11;105633;1269;60558;-78
2023/11/07 05:03:55;;;;;;;13.60;6.70;;;;;;;8.21;100.00;100995.52;105693;1254;60567;-78
2023/11/07 05:06:22;;;;;;;12.50;6.00;;;;;;;8.23;100.00;101000.67;105686;1259;73941;-77
2023/11/07 05:08:51;;;;;;;11.60;5.00;;;;;;;8.25;100.00;100997.45;105711;1258;63957;-77
2023/11/07 05:11:17;;;;;;;7.90;4.60;;;;;;;8.28;100.00;100997.84;105727;1257;72484;-79
2023/11/07 05:13:48;;;;;;;11.90;5.70;;;;;;;8.30;100.00;100998.25;105529;1260;61171;-79
2023/11/07 05:16:15;;;;;;;10.10;5.40;;;;;;;8.34;100.00;100998.13;105705;1256;61469;-79
2023/11/07 05:18:42;;;;;;;16.30;8.90;;;;;;;8.37;100.00;100994.33;105559;1254;74795;-78
2023/11/07 05:21:09;;;;;;;13.20;6.20;;;;;;;8.40;100.00;100993.30;105499;1260;63593;-78
2023/11/07 05:23:37;;;;;;;9.20;5.60;;;;;;;8.44;100.00;100990.88;105709;1260;72509;-78
2023/11/07 05:26:06;;;;;;;7.20;4.90;;;;;;;8.48;100.00;100996.60;105634;1257;60445;-78
2023/11/07 05:28:33;;;;;;;9.90;5.90;;;;;;;8.54;100.00;100999.48;105614;1259;60464;-79
2023/11/07 05:31:00;;;;;;;7.00;3.70;;;;;;;8.60;100.00;101002.86;105613;1258;74220;-79
2023/11/07 05:33:28;;;;;;;9.00;5.10;;;;;;;8.66;100.00;101008.36;105704;1260;63947;-77
2023/11/07 05:35:55;;;;;;;6.30;4.10;;;;;;;8.73;100.00;101008.91;105619;1261;72699;-79
2023/11/07 05:38:22;;;;;;;5.40;3.30;;;;;;;8.81;100.00;101012.40;105643;1260;61287;-77
2023/11/07 05:40:50;;;;;;;8.00;3.20;;;;;;;8.89;100.00;101011.65;105606;1255;60943;-78
2023/11/07 05:43:21;;;;;;;4.20;3.20;;;;;;;9.10;100.00;101019.20;105510;1254;72379;-78
2023/11/07 05:45:48;;;;;;;4.80;2.80;;;;;;;9.45;100.00;101022.93;105600;1259;63895;-77
2023/11/07 05:48:16;;;;;;;3.60;1.90;;;;;;;9.88;100.00;101031.45;105595;1259;72739;-79
2023/11/07 05:50:43;;;;;;;2.90;2.30;;;;;;;10.47;100.00;101042.08;105659;1260;60551;-77
2023/11/07 05:53:10;;;;;;;7.40;3.70;;;;;;;11.22;100.00;101053.58;105731;1261;60452;-79
2023/11/07 05:55:37;;;;;;;10.70;5.20;;;;;;;12.07;100.00;101055.73;105621;1258;73799;-77
2023/11/07 05:58:07;;;;;;;7.70;4.20;;;;;;;12.63;100.00;101056.05;105610;1260;63881;-76
2023/11/07 06:00:34;;;;;;;11.50;3.60;;;;;;;12.78;100.00;101055.48;105613;1259;71171;-78
2023/11/07 06:03:01;;;;;;;6.30;2.60;;;;;;;12.70;100.00;101056.16;105957;1254;61882;-79
2023/11/07 06:05:34;;;;;;;4.80;2.80;;;;;;;12.58;100.00;101057.63;105633;1260;60387;-77
2023/11/07 06:08:01;;;;;;;6.30;3.50;;;;;;;12.41;100.00;101061.10;105970;1259;72849;-78
2023/11/07 06:10:30;;;;;;;8.40;3.60;;;;;;;12.23;100.00;101064.09;106103;1254;64092;-79
2023/11/07 06:12:57;;;;;;;8.10;4.30;;;;;;;12.06;100.00;101062.50;106072;1260;72660;-76
2023/11/07 06:15:27;;;;;;;4.10;2.40;;;;;;;11.92;100.00;101066.98;107249;1257;60578;-78
2023/11/07 06:17:54;;;;;;;4.20;2.30;;;;;;;11.80;100.00;101067.98;106796;1255;60448;-76
2023/11/07 06:20:21;;;;;;;5.30;2.50;;;;;;;11.71;100.00;101069.90;105901;1260;71843;-80
2023/11/07 06:22:50;;;;;;;6.80;3.20;;;;;;;11.63;100.00;101070.73;105669;1254;62673;-75
2023/11/07 06:25:19;;;;;;;6.10;2.50;;;;;;;11.57;100.00;101073.15;106130;1259;72604;-78
2023/11/07 06:27:47;;;;;;;5.50;3.70;;;;;;;11.52;100.00;101071.38;105571;1258;61979;-78
2023/11/07 06:30:18;;;;;;;6.20;2.90;;;;;;;11.45;100.00;101071.04;105616;1260;60357;-79
2023/11/07 06:32:45;;;;;;;5.30;3.30;;;;;;;11.41;100.00;101074.59;105581;1259;73877;-78
2023/11/07 06:35:14;;;;;;;5.40;3.30;;;;;;;11.38;100.00;101070.55;105643;1259;62583;-78
2023/11/07 06:37:41;;;;;;;6.00;2.90;;;;;;;11.36;100.00;101078.39;105637;1260;73859;-77
2023/11/07 06:40:16;;;;;;;4.50;2.90;;;;;;;11.33;100.00;101086.58;105579;1258;61230;-79
2023/11/07 06:42:46;;;;;;;5.50;3.00;;;;;;;11.30;100.00;101084.63;105412;1254;60562;-77
2023/11/07 06:45:14;;;;;;;5.00;2.80;;;;;;;11.30;100.00;101082.91;105651;1254;73823;-78
2023/11/07 06:47:42;;;;;;;6.70;3.10;;;;;;;11.28;100.00;101088.42;105591;1258;63979;-80
2023/11/07 06:50:10;;;;;;;8.00;3.30;;;;;;;11.27;100.00;101090.95;106328;1260;72711;-77
2023/11/07 06:52:40;;;;;;;5.60;3.30;;;;;;;11.26;100.00;101090.98;105850;1254;62025;-78
2023/11/07 06:55:09;;;;;;;6.20;3.00;;;;;;;11.27;100.00;101094.28;105562;1256;61516;-76
2023/11/07 06:57:36;;;;;;;8.20;3.60;;;;;;;11.27;100.00;101090.62;105438;1257;73737;-79
2023/11/07 07:00:05;;;;;;;5.80;3.90;;;;;;;11.27;100.00;101090.62;105428;1255;63926;-79
2023/11/07 07:02:33;;;;;;;10.10;3.20;;;;;;;11.28;100.00;101099.16;105741;1261;72674;-79
2023/11/07 07:05:00;;;;;;;6.90;3.20;;;;;;;11.28;100.00;101098.27;105598;1260;62008;-82
2023/11/07 07:07:27;;;;;;;7.50;3.60;;;;;;;11.28;100.00;101102.63;105707;1254;60552;-81
2023/11/07 07:09:54;;;;;;;8.80;4.10;;;;;;;11.29;100.00;101100.64;105590;1259;72401;-80
2023/11/07 07:12:21;;;;;;;9.60;4.10;;;;;;;11.30;100.00;101095.84;105680;1259;63568;-81
2023/11/07 07:14:49;;;;;;;7.80;4.70;;;;;;;11.33;100.00;101093.79;105686;1259;71341;-81
2023/11/07 07:17:19;;;;;;;6.80;4.10;;;;;;;11.34;100.00;101098.59;105537;1254;61711;-81
2023/11/07 07:19:46;;;;;;;9.20;4.60;;;;;;;11.37;100.00;101098.07;105639;1259;60458;-80
2023/11/07 07:22:14;;;;;;;26.50;5.00;;;;;;;11.40;100.00;101100.41;105386;1254;258512;-78
2023/11/07 07:25:49;;;;;;;6.70;3.10;;;;;;;11.47;100.00;101108.95;102601;1295;600250;-76
2023/11/07 07:28:18;;;;;;;7.80;3.90;;;;;;;11.51;100.00;101111.34;104923;1271;61949;-79
2023/11/07 07:30:48;;;;;;;5.50;3.60;;;;;;;11.58;100.00;101113.02;104919;1268;62316;-79
2023/11/07 07:33:18;;;;;;;9.70;4.90;;;;;;;11.64;100.00;101120.04;105453;1258;72100;-79
2023/11/07 07:35:47;;;;;;;5.70;4.30;;;;;;;11.69;100.00;101117.14;105381;1263;63582;-79
2023/11/07 07:38:14;;;;;;;7.50;3.80;;;;;;;11.74;100.00;101125.11;105421;1257;71494;-79
2023/11/07 07:40:44;;;;;;;5.80;3.50;;;;;;;11.78;100.00;101127.84;105366;1257;61263;-78
2023/11/07 07:43:15;;;;;;;7.20;3.70;;;;;;;11.83;100.00;101126.15;106000;1253;59300;-78
2023/11/07 07:45:42;;;;;;;7.80;4.40;;;;;;;11.89;100.00;101129.55;105741;1256;71027;-81
2023/11/07 07:48:11;;;;;;;7.90;4.20;;;;;;;11.93;100.00;101128.79;105771;1256;62938;-79
2023/11/07 07:50:41;;;;;;;6.60;3.60;;;;;;;11.97;100.00;101126.43;105853;1256;71377;-77
2023/11/07 07:53:10;;;;;;;8.90;3.80;;;;;;;12.02;100.00;101129.49;105746;1254;60968;-76
2023/11/07 07:55:43;;;;;;;7.90;3.60;;;;;;;12.07;100.00;101124.99;105782;1254;59557;-79
2023/11/07 07:58:11;;;;;;;5.10;3.10;;;;;;;12.11;100.00;101128.61;105896;1256;72402;-78
2023/11/07 08:00:40;;;;;;;5.70;3.10;;;;;;;12.16;100.00;101128.66;105786;1257;62399;-77
2023/11/07 08:03:09;;;;;;;9.30;3.90;;;;;;;12.22;100.00;101133.56;105937;1254;72887;-79
2023/11/07 08:05:42;;;;;;;8.70;4.30;;;;;;;12.27;100.00;101133.80;105970;1257;60361;-80
2023/11/07 08:08:11;;;;;;;10.50;3.70;;;;;;;12.32;100.00;101134.04;105826;1257;61042;-79
2023/11/07 08:10:47;;;;;;;7.70;4.80;;;;;;;12.37;100.00;101137.61;106170;1256;72549;-77
2023/11/07 08:13:19;;;;;;;10.70;5.00;;;;;;;12.42;100.00;101137.80;106597;1256;65359;-79
2023/11/07 08:15:53;;;;;;;8.40;4.00;;;;;;;12.49;100.00;101138.84;106093;1257;73109;-80
2023/11/07 08:18:37;;;;;;;9.20;4.40;;;;;;;12.55;100.00;101141.08;106251;1253;60740;-79
2023/11/07 08:21:07;;;;;;;7.30;4.10;;;;;;;12.60;100.00;101138.16;105860;1255;61361;-78
2023/11/07 08:23:35;;;;;;;10.80;5.60;;;;;;;12.66;100.00;101138.14;105806;1257;74767;-80
2023/11/07 08:26:03;;;;;;;7.00;4.00;;;;;;;12.71;100.00;101141.00;105797;1254;62347;-76
2023/11/07 08:28:33;;;;;;;9.90;3.40;;;;;;;12.77;100.00;101143.50;105765;1259;73557;-79
2023/11/07 08:31:01;;;;;;;6.20;3.40;;;;;;;12.81;100.00;101150.02;105792;1254;61357;-79
2023/11/07 08:33:30;;;;;;;4.90;3.40;;;;;;;12.88;100.00;101147.71;106110;1256;60888;-79
2023/11/07 08:36:01;;;;;;;6.30;3.30;;;;;;;12.93;100.00;101151.96;106045;1256;72661;-79
2023/11/07 08:38:29;;;;;;;4.40;3.20;;;;;;;12.98;100.00;101149.89;105974;1254;65076;-79
2023/11/07 08:41:15;;;;;;;6.90;3.40;;;;;;;13.05;100.00;101152.97;102782;1290;600314;-81
2023/11/07 08:43:43;;;;;;;5.10;3.30;;;;;;;13.09;100.00;101152.95;104908;1271;62304;-81
2023/11/07 08:46:20;;;;;;;5.40;2.40;;;;;;;13.14;100.00;101151.36;104964;1267;60978;-76
2023/11/07 08:48:51;;;;;;;5.10;2.00;;;;;;;13.20;100.00;101150.66;104944;1267;70933;-80
2023/11/07 08:51:18;;;;;;;3.90;1.70;;;;;;;13.24;100.00;101145.61;105064;1269;63498;-77
2023/11/07 08:53:46;;;;;;;3.20;1.40;;;;;;;13.29;100.00;101141.71;104779;1269;210232;-78
2023/11/07 08:56:14;;;;;;;3.10;1.60;;;;;;;13.34;100.00;101146.49;105638;1257;62309;-77
2023/11/07 08:58:41;;;;;;;4.10;1.90;;;;;;;13.40;100.00;101148.58;105654;1254;62390;-79
2023/11/07 09:01:10;;;;;;;3.50;2.20;;;;;;;13.45;100.00;101151.57;105597;1254;71641;-81
2023/11/07 09:03:38;;;;;;;4.10;1.80;;;;;;;13.51;100.00;101150.48;105729;1259;63995;-78
2023/11/07 09:06:08;;;;;;;3.20;2.00;;;;;;;13.57;100.00;101146.79;105500;1254;73016;-79
2023/11/07 09:08:35;;;;;;;3.90;1.50;;;;;;;13.63;100.00;101146.40;105737;1260;61946;-76
2023/11/07 09:11:03;;;;;;;3.10;1.60;;;;;;;13.75;100.00;101139.10;105741;1254;59495;-77
2023/11/07 09:13:31;;;;;;;3.60;1.40;;;;;;;14.15;100.00;101136.79;105687;1259;74998;-77
2023/11/07 09:15:58;;;;;;;4.70;2.60;;;;;;;14.85;100.00;101136.81;105683;1259;65708;-79
2023/11/07 09:18:26;;;;;;;2.90;1.80;;;;;;;15.70;100.00;101133.27;105655;1257;72710;-79
2023/11/07 09:20:55;;;;;;;7.70;2.00;;;;;;;16.55;98.16;101131.09;105793;1260;59910;-78
2023/11/07 09:23:23;;;;;;;4.40;2.60;;;;;;;17.46;90.06;101128.23;106153;1259;61548;-80
2023/11/07 09:25:54;;;;;;;6.60;2.60;;;;;;;18.34;76.90;101129.87;105815;1254;75023;-78
2023/11/07 09:28:22;;;;;;;4.00;3.00;;;;;;;19.08;69.32;101128.96;105763;1258;63252;-81
2023/11/07 09:30:50;;;;;;;3.20;2.20;;;;;;;19.86;62.04;101130.04;106012;1257;73759;-79
2023/11/07 09:33:19;;;;;;;4.30;2.30;;;;;;;20.54;57.01;101125.19;105872;1255;59831;-77
2023/11/07 09:35:47;;;;;;;4.20;3.00;;;;;;;21.14;53.10;101123.23;106071;1254;60374;-78
2023/11/07 09:38:15;;;;;;;4.50;2.10;;;;;;;21.68;50.29;101118.64;105828;1254;73346;-80
2023/11/07 09:40:44;;;;;;;2.80;1.90;;;;;;;22.18;49.60;101119.70;105684;1254;66550;-79
2023/11/07 09:43:16;;;;;;;3.30;2.10;;;;;;;22.75;48.53;101117.30;105529;1260;73630;-78
2023/11/07 09:45:43;;;;;;;7.80;2.80;;;;;;;23.32;45.15;101111.90;105859;1257;59676;-78
2023/11/07 09:48:11;;;;;;;5.20;1.80;;;;;;;23.72;43.06;101114.00;105840;1258;60285;-77
2023/11/07 09:50:41;;;;;;;5.00;2.40;;;;;;;23.98;42.13;101117.61;106009;1252;75615;-76
2023/11/07 09:53:13;;;;;;;3.90;1.30;;;;;;;24.17;41.34;101120.91;105990;1256;63643;-76
2023/11/07 09:55:41;;;;;;;2.10;1.40;;;;;;;24.39;40.95;101119.98;105948;1253;71618;-80
2023/11/07 09:58:11;;;;;;;4.60;1.70;;;;;;;24.60;39.69;101113.70;106072;1251;59672;-78
2023/11/07 10:00:44;;;;;;;2.60;1.90;;;;;;;24.73;39.03;101115.34;105964;1251;62899;-79
2023/11/07 10:03:13;;;;;;;5.40;2.00;;;;;;;24.76;38.60;101111.50;106011;1251;75325;-77
2023/11/07 10:05:42;;;;;;;3.60;2.30;;;;;;;24.68;38.32;101118.87;105860;1256;64210;-78
2023/11/07 10:08:11;;;;;;;4.00;1.50;;;;;;;24.55;38.42;101114.98;105739;1253;76170;-79
2023/11/07 10:10:39;;;;;;;5.00;1.50;;;;;;;24.49;38.51;101112.17;106009;1256;60724;-77
2023/11/07 10:13:08;;;;;;;8.10;3.00;;;;;;;24.49;38.60;101113.36;106137;1254;60679;-81
2023/11/07 10:15:36;;;;;;;2.10;1.20;;;;;;;24.50;38.40;101115.14;105987;1251;73016;-80
2023/11/07 10:18:08;;;;;;;1.50;1.00;;;;;;;24.47;38.38;101118.83;105942;1251;62429;-78
2023/11/07 10:20:54;;;;;;;2.40;0.90;;;;;;;24.36;37.60;101113.27;106023;1251;73945;-79
2023/11/07 10:23:22;;;;;;;3.90;1.60;;;;;;;24.23;37.73;101120.27;105942;1256;60340;-80
2023/11/07 10:25:50;;;;;;;5.30;1.40;;;;;;;24.18;37.85;101117.20;105990;1251;62356;-77
2023/11/07 10:28:21;;;;;;;1.70;0.90;;;;;;;24.12;37.81;101116.15;106104;1253;75235;-77
2023/11/07 10:30:50;;;;;;;3.90;1.50;;;;;;;24.03;37.99;101119.95;106121;1256;64187;-78
2023/11/07 10:33:36;;;;;;;3.90;1.50;;;;;;;23.86;38.06;101115.39;105931;1257;72644;-78
2023/11/07 10:36:04;;;;;;;4.00;1.20;;;;;;;23.68;38.53;101119.64;106192;1250;60232;-81
2023/11/07 10:38:31;;;;;;;8.00;3.80;;;;;;;23.59;39.06;101119.31;105822;1251;59701;-78
2023/11/07 10:41:01;;;;;;;3.70;1.80;;;;;;;23.50;39.37;101113.89;106086;1254;72995;-79
2023/11/07 10:43:39;;;;;;;2.70;1.50;;;;;;;23.37;39.40;101114.41;105937;1251;62684;-81
2023/11/07 10:46:08;;;;;;;3.60;2.00;;;;;;;23.06;39.57;101116.70;109625;1251;74526;-79
2023/11/07 10:48:40;;;;;;;5.10;1.90;;;;;;;22.77;40.24;101119.05;109706;1251;59224;-79
2023/11/07 10:51:12;;;;;;;2.40;1.40;;;;;;;22.55;40.35;101125.02;109706;1251;59215;-78
2023/11/07 10:53:44;;;;;;;2.50;1.40;;;;;;;22.34;40.80;101126.72;109792;1251;74566;-78
2023/11/07 10:56:18;;;;;;;2.50;1.30;;;;;;;22.01;40.92;101122.00;109630;1251;63975;-78
2023/11/07 10:58:52;;;;;;;3.50;1.30;;;;;;;21.69;42.21;101120.71;109770;1251;72650;-79
2023/11/07 11:01:20;;;;;;;2.90;1.30;;;;;;;21.46;43.88;101121.02;109542;1253;61338;-78
2023/11/07 11:03:49;;;;;;;5.60;2.10;;;;;;;21.24;43.89;101121.82;109722;1251;58914;-78
2023/11/07 11:06:23;;;;;;;7.30;3.10;;;;;;;20.97;43.73;101120.04;109733;1251;75137;-78
2023/11/07 11:08:53;;;;;;;4.50;1.80;;;;;;;20.62;44.68;101121.98;109763;1252;63590;-77
2023/11/07 11:11:21;;;;;;;2.40;1.30;;;;;;;20.29;45.18;101114.86;109625;1251;72907;-77
2023/11/07 11:13:51;;;;;;;1.60;1.00;;;;;;;20.00;46.07;101118.83;109808;1250;59553;-78
2023/11/07 11:16:18;;;;;;;3.30;1.80;;;;;;;19.76;47.36;101124.33;109627;1251;60176;-77
2023/11/07 11:18:57;;;;;;;3.50;1.30;;;;;;;19.54;48.21;101123.66;109703;1251;73851;-79